sensor_id;sensor_type;location;lat;lon;timestamp;pressure;altitude;pressure_sealevel;temperature;humidity
26436;BME280;15351;52.408;16.826;2023-01-27T00:01:57;101331.71;;;4.46;77.64
26436;BME280;15351;52.408;16.826;2023-01-27T00:04:24;101334.86;;;4.45;77.48
26436;BME280;15351;52.408;16.826;2023-01-27T00:06:50;101332.16;;;4.45;77.58
26436;BME280;15351;52.408;16.826;2023-01-27T00:09:16;101330.90;;;4.45;77.83
26436;BME280;15351;52.408;16.826;2023-01-27T00:11:45;101330.00;;;4.50;77.72
26436;BME280;15351;52.408;16.826;2023-01-27T00:14:29;101326.08;;;4.55;77.55
26436;BME280;15351;52.408;16.826;2023-01-27T00:16:55;101323.58;;;4.57;77.54
26436;BME280;15351;52.408;16.826;2023-01-27T00:19:24;101326.54;;;4.58;77.35
26436;BME280;15351;52.408;16.826;2023-01-27T00:21:52;101324.01;;;4.56;77.43
26436;BME280;15351;52.408;16.826;2023-01-27T00:24:54;101326.34;;;4.56;77.49
26436;BME280;15351;52.408;16.826;2023-01-27T00:27:22;101329.50;;;4.57;77.52
26436;BME280;15351;52.408;16.826;2023-01-27T00:29:50;101325.63;;;4.56;77.32
26436;BME280;15351;52.408;16.826;2023-01-27T00:32:22;101321.77;;;4.51;77.47
26436;BME280;15351;52.408;16.826;2023-01-27T00:35:18;101322.73;;;4.52;77.49
26436;BME280;15351;52.408;16.826;2023-01-27T00:37:45;101321.77;;;4.48;77.51
26436;BME280;15351;52.408;16.826;2023-01-27T00:40:14;101323.64;;;4.45;77.59
26436;BME280;15351;52.408;16.826;2023-01-27T00:42:41;101326.68;;;4.45;77.54
26436;BME280;15351;52.408;16.826;2023-01-27T00:45:08;101326.20;;;4.46;77.51
26436;BME280;15351;52.408;16.826;2023-01-27T00:47:53;101326.95;;;4.50;77.51
26436;BME280;15351;52.408;16.826;2023-01-27T00:50:20;101337.60;;;4.53;77.41
26436;BME280;15351;52.408;16.826;2023-01-27T00:52:48;101343.32;;;4.53;77.39
26436;BME280;15351;52.408;16.826;2023-01-27T00:55:14;101345.53;;;4.52;77.20
26436;BME280;15351;52.408;16.826;2023-01-27T00:57:43;101343.59;;;4.49;77.21
26436;BME280;15351;52.408;16.826;2023-01-27T01:00:10;101344.83;;;4.49;77.40
26436;BME280;15351;52.408;16.826;2023-01-27T01:02:37;101346.94;;;4.52;77.39
26436;BME280;15351;52.408;16.826;2023-01-27T01:05:05;101348.35;;;4.52;77.27
26436;BME280;15351;52.408;16.826;2023-01-27T01:07:32;101350.63;;;4.53;77.22
26436;BME280;15351;52.408;16.826;2023-01-27T01:10:02;101353.44;;;4.53;77.12
26436;BME280;15351;52.408;16.826;2023-01-27T01:12:28;101356.05;;;4.57;77.17
26436;BME280;15351;52.408;16.826;2023-01-27T01:14:56;101359.36;;;4.55;77.14
26436;BME280;15351;52.408;16.826;2023-01-27T01:17:22;101359.16;;;4.58;77.02
26436;BME280;15351;52.408;16.826;2023-01-27T01:19:49;101357.06;;;4.59;76.86
26436;BME280;15351;52.408;16.826;2023-01-27T01:22:16;101355.88;;;4.59;76.76
26436;BME280;15351;52.408;16.826;2023-01-27T01:24:43;101357.55;;;4.60;76.87
26436;BME280;15351;52.408;16.826;2023-01-27T01:27:15;101351.99;;;4.58;76.69
26436;BME280;15351;52.408;16.826;2023-01-27T01:29:45;101350.12;;;4.57;76.47
26436;BME280;15351;52.408;16.826;2023-01-27T01:32:15;101350.89;;;4.52;76.32
26436;BME280;15351;52.408;16.826;2023-01-27T01:34:44;101351.77;;;4.47;76.30
26436;BME280;15351;52.408;16.826;2023-01-27T01:37:11;101352.98;;;4.43;76.46
26436;BME280;15351;52.408;16.826;2023-01-27T01:39:42;101357.97;;;4.41;76.46
26436;BME280;15351;52.408;16.826;2023-01-27T01:42:08;101359.71;;;4.41;76.52
26436;BME280;15351;52.408;16.826;2023-01-27T01:48:05;101357.08;;;4.41;76.19
26436;BME280;15351;52.408;16.826;2023-01-27T01:50:35;101354.30;;;4.40;76.41
26436;BME280;15351;52.408;16.826;2023-01-27T01:53:04;101357.54;;;4.37;76.40
26436;BME280;15351;52.408;16.826;2023-01-27T01:55:33;101357.61;;;4.36;76.42
26436;BME280;15351;52.408;16.826;2023-01-27T01:58:18;101355.05;;;4.37;76.54
26436;BME280;15351;52.408;16.826;2023-01-27T02:00:46;101351.72;;;4.36;76.33
26436;BME280;15351;52.408;16.826;2023-01-27T02:03:15;101350.27;;;4.34;76.43
26436;BME280;15351;52.408;16.826;2023-01-27T02:05:42;101347.79;;;4.37;76.53
26436;BME280;15351;52.408;16.826;2023-01-27T02:08:15;101349.63;;;4.40;76.48
26436;BME280;15351;52.408;16.826;2023-01-27T02:10:44;101347.61;;;4.43;76.10
26436;BME280;15351;52.408;16.826;2023-01-27T02:13:12;101349.71;;;4.42;75.92
26436;BME280;15351;52.408;16.826;2023-01-27T02:15:42;101356.70;;;4.41;76.00
26436;BME280;15351;52.408;16.826;2023-01-27T02:18:08;101361.90;;;4.38;76.02
26436;BME280;15351;52.408;16.826;2023-01-27T02:20:46;101354.66;;;4.35;76.17
26436;BME280;15351;52.408;16.826;2023-01-27T02:26:43;101349.89;;;4.37;76.02
26436;BME280;15351;52.408;16.826;2023-01-27T02:29:14;101353.38;;;4.38;75.94
26436;BME280;15351;52.408;16.826;2023-01-27T02:31:42;101353.07;;;4.35;75.79
26436;BME280;15351;52.408;16.826;2023-01-27T02:36:57;101363.17;;;4.31;76.08
26436;BME280;15351;52.408;16.826;2023-01-27T02:39:31;101364.70;;;4.32;75.73
26436;BME280;15351;52.408;16.826;2023-01-27T02:42:01;101369.32;;;4.30;75.80
26436;BME280;15351;52.408;16.826;2023-01-27T02:44:39;101369.89;;;4.27;75.73
26436;BME280;15351;52.408;16.826;2023-01-27T02:47:05;101371.21;;;4.24;75.77
26436;BME280;15351;52.408;16.826;2023-01-27T02:49:33;101374.86;;;4.25;75.93
26436;BME280;15351;52.408;16.826;2023-01-27T02:52:01;101377.36;;;4.25;75.54
26436;BME280;15351;52.408;16.826;2023-01-27T02:54:32;101378.27;;;4.22;75.69
26436;BME280;15351;52.408;16.826;2023-01-27T02:57:20;101378.85;;;4.19;75.81
26436;BME280;15351;52.408;16.826;2023-01-27T03:00:11;101376.98;;;4.16;76.03
26436;BME280;15351;52.408;16.826;2023-01-27T03:02:40;101379.93;;;4.15;76.08
26436;BME280;15351;52.408;16.826;2023-01-27T03:05:13;101379.97;;;4.12;75.99
26436;BME280;15351;52.408;16.826;2023-01-27T03:07:42;101376.65;;;4.14;75.91
26436;BME280;15351;52.408;16.826;2023-01-27T03:10:10;101376.63;;;4.14;75.99
26436;BME280;15351;52.408;16.826;2023-01-27T03:12:38;101378.47;;;4.13;76.20
26436;BME280;15351;52.408;16.826;2023-01-27T03:15:04;101376.03;;;4.19;76.17
26436;BME280;15351;52.408;16.826;2023-01-27T03:17:50;101382.14;;;4.25;75.88
26436;BME280;15351;52.408;16.826;2023-01-27T03:20:34;101381.27;;;4.25;75.56
26436;BME280;15351;52.408;16.826;2023-01-27T03:23:01;101376.55;;;4.24;75.56
26436;BME280;15351;52.408;16.826;2023-01-27T03:25:29;101377.41;;;4.21;75.66
26436;BME280;15351;52.408;16.826;2023-01-27T03:27:57;101380.64;;;4.21;75.87
26436;BME280;15351;52.408;16.826;2023-01-27T03:30:37;101376.66;;;4.22;75.76
26436;BME280;15351;52.408;16.826;2023-01-27T03:33:11;101375.73;;;4.18;75.59
26436;BME280;15351;52.408;16.826;2023-01-27T03:35:45;101374.27;;;4.14;75.64
26436;BME280;15351;52.408;16.826;2023-01-27T03:38:17;101373.61;;;4.12;75.79
26436;BME280;15351;52.408;16.826;2023-01-27T03:41:03;101371.64;;;4.12;75.83
26436;BME280;15351;52.408;16.826;2023-01-27T03:43:58;101374.46;;;4.14;75.94
26436;BME280;15351;52.408;16.826;2023-01-27T03:46:46;101372.83;;;4.15;75.80
26436;BME280;15351;52.408;16.826;2023-01-27T03:49:12;101373.62;;;4.13;75.71
26436;BME280;15351;52.408;16.826;2023-01-27T03:51:38;101368.98;;;4.11;75.71
26436;BME280;15351;52.408;16.826;2023-01-27T03:54:05;101368.63;;;4.07;75.86
26436;BME280;15351;52.408;16.826;2023-01-27T03:56:32;101372.51;;;4.09;75.93
26436;BME280;15351;52.408;16.826;2023-01-27T03:59:01;101371.21;;;4.15;75.91
26436;BME280;15351;52.408;16.826;2023-01-27T04:01:28;101371.52;;;4.17;75.64
26436;BME280;15351;52.408;16.826;2023-01-27T04:03:57;101372.81;;;4.13;75.59
26436;BME280;15351;52.408;16.826;2023-01-27T04:06:42;101375.49;;;4.10;75.92
26436;BME280;15351;52.408;16.826;2023-01-27T04:09:32;101383.73;;;4.14;75.92
26436;BME280;15351;52.408;16.826;2023-01-27T04:12:03;101386.25;;;4.18;75.70
26436;BME280;15351;52.408;16.826;2023-01-27T04:14:35;101387.33;;;4.18;75.48
26436;BME280;15351;52.408;16.826;2023-01-27T04:17:14;101391.20;;;4.12;75.32
26436;BME280;15351;52.408;16.826;2023-01-27T04:19:40;101389.64;;;4.06;75.48
26436;BME280;15351;52.408;16.826;2023-01-27T04:22:12;101391.98;;;4.06;75.55
26436;BME280;15351;52.408;16.826;2023-01-27T04:24:41;101397.33;;;4.06;75.64
26436;BME280;15351;52.408;16.826;2023-01-27T04:27:13;101400.20;;;4.08;75.59
26436;BME280;15351;52.408;16.826;2023-01-27T04:29:41;101399.68;;;4.05;75.68
26436;BME280;15351;52.408;16.826;2023-01-27T04:32:09;101399.28;;;4.03;75.73
26436;BME280;15351;52.408;16.826;2023-01-27T04:34:37;101403.27;;;4.07;76.05
26436;BME280;15351;52.408;16.826;2023-01-27T04:37:05;101409.13;;;4.10;75.88
26436;BME280;15351;52.408;16.826;2023-01-27T04:39:34;101409.52;;;4.14;75.64
26436;BME280;15351;52.408;16.826;2023-01-27T04:42:00;101412.85;;;4.17;75.66
26436;BME280;15351;52.408;16.826;2023-01-27T04:44:29;101417.48;;;4.17;75.56
26436;BME280;15351;52.408;16.826;2023-01-27T04:46:55;101414.77;;;4.15;75.83
26436;BME280;15351;52.408;16.826;2023-01-27T04:49:24;101414.73;;;4.16;75.64
26436;BME280;15351;52.408;16.826;2023-01-27T04:51:51;101415.50;;;4.15;75.59
26436;BME280;15351;52.408;16.826;2023-01-27T04:54:22;101412.11;;;4.13;75.76
26436;BME280;15351;52.408;16.826;2023-01-27T04:56:57;101413.70;;;4.11;75.86
26436;BME280;15351;52.408;16.826;2023-01-27T04:59:44;101407.29;;;4.11;76.00
26436;BME280;15351;52.408;16.826;2023-01-27T05:02:11;101412.25;;;4.13;76.10
26436;BME280;15351;52.408;16.826;2023-01-27T05:04:39;101413.17;;;4.15;75.95
26436;BME280;15351;52.408;16.826;2023-01-27T05:07:05;101419.00;;;4.14;75.80
26436;BME280;15351;52.408;16.826;2023-01-27T05:09:50;101424.81;;;4.12;76.03
26436;BME280;15351;52.408;16.826;2023-01-27T05:12:17;101424.21;;;4.13;76.12
26436;BME280;15351;52.408;16.826;2023-01-27T05:14:44;101427.27;;;4.13;75.98
26436;BME280;15351;52.408;16.826;2023-01-27T05:17:11;101428.79;;;4.11;75.98
26436;BME280;15351;52.408;16.826;2023-01-27T05:19:37;101430.13;;;4.08;75.99
26436;BME280;15351;52.408;16.826;2023-01-27T05:22:04;101431.61;;;4.00;76.15
26436;BME280;15351;52.408;16.826;2023-01-27T05:24:31;101432.54;;;3.96;76.46
26436;BME280;15351;52.408;16.826;2023-01-27T05:26:59;101430.71;;;3.99;76.67
26436;BME280;15351;52.408;16.826;2023-01-27T05:29:25;101432.49;;;3.97;76.60
26436;BME280;15351;52.408;16.826;2023-01-27T05:32:04;101435.34;;;4.00;76.83
26436;BME280;15351;52.408;16.826;2023-01-27T05:34:30;101437.91;;;4.03;76.93
26436;BME280;15351;52.408;16.826;2023-01-27T05:36:57;101438.93;;;4.06;76.95
26436;BME280;15351;52.408;16.826;2023-01-27T05:39:24;101436.09;;;4.06;76.86
26436;BME280;15351;52.408;16.826;2023-01-27T05:41:53;101435.16;;;4.07;76.94
26436;BME280;15351;52.408;16.826;2023-01-27T05:44:20;101434.17;;;4.11;76.87
26436;BME280;15351;52.408;16.826;2023-01-27T05:46:51;101441.02;;;4.12;76.99
26436;BME280;15351;52.408;16.826;2023-01-27T05:49:24;101442.32;;;4.14;76.90
26436;BME280;15351;52.408;16.826;2023-01-27T05:51:51;101442.48;;;4.18;76.88
26436;BME280;15351;52.408;16.826;2023-01-27T05:54:17;101446.95;;;4.22;76.63
26436;BME280;15351;52.408;16.826;2023-01-27T05:56:43;101446.69;;;4.19;76.50
26436;BME280;15351;52.408;16.826;2023-01-27T05:59:11;101449.79;;;4.13;76.74
26436;BME280;15351;52.408;16.826;2023-01-27T06:01:38;101446.63;;;4.11;76.93
26436;BME280;15351;52.408;16.826;2023-01-27T06:04:05;101450.13;;;4.14;77.12
26436;BME280;15351;52.408;16.826;2023-01-27T06:06:32;101450.77;;;4.17;76.94
26436;BME280;15351;52.408;16.826;2023-01-27T06:08:59;101453.89;;;4.18;76.96
26436;BME280;15351;52.408;16.826;2023-01-27T06:11:26;101449.91;;;4.14;76.90
26436;BME280;15351;52.408;16.826;2023-01-27T06:13:52;101453.27;;;4.12;77.23
26436;BME280;15351;52.408;16.826;2023-01-27T06:16:20;101450.84;;;4.14;77.17
26436;BME280;15351;52.408;16.826;2023-01-27T06:18:48;101451.98;;;4.08;76.99
26436;BME280;15351;52.408;16.826;2023-01-27T06:21:15;101457.52;;;4.05;77.24
26436;BME280;15351;52.408;16.826;2023-01-27T06:23:44;101462.73;;;4.07;77.37
26436;BME280;15351;52.408;16.826;2023-01-27T06:26:31;101461.98;;;4.08;77.55
26436;BME280;15351;52.408;16.826;2023-01-27T06:32:54;101464.36;;;4.11;77.50
26436;BME280;15351;52.408;16.826;2023-01-27T06:35:24;101464.45;;;4.13;77.55
26436;BME280;15351;52.408;16.826;2023-01-27T06:37:50;101470.50;;;4.15;77.83
26436;BME280;15351;52.408;16.826;2023-01-27T06:40:17;101468.07;;;4.18;77.69
26436;BME280;15351;52.408;16.826;2023-01-27T06:42:44;101468.36;;;4.18;77.45
26436;BME280;15351;52.408;16.826;2023-01-27T06:45:11;101465.28;;;4.16;77.47
26436;BME280;15351;52.408;16.826;2023-01-27T06:47:38;101465.48;;;4.16;77.73
26436;BME280;15351;52.408;16.826;2023-01-27T06:50:06;101468.89;;;4.15;77.75
26436;BME280;15351;52.408;16.826;2023-01-27T06:52:35;101470.64;;;4.19;77.81
26436;BME280;15351;52.408;16.826;2023-01-27T06:55:02;101469.45;;;4.21;77.64
26436;BME280;15351;52.408;16.826;2023-01-27T06:57:30;101460.48;;;4.20;77.67
26436;BME280;15351;52.408;16.826;2023-01-27T06:59:56;101459.27;;;4.22;77.76
26436;BME280;15351;52.408;16.826;2023-01-27T07:02:22;101459.99;;;4.19;77.64
26436;BME280;15351;52.408;16.826;2023-01-27T07:04:49;101464.48;;;4.19;77.91
26436;BME280;15351;52.408;16.826;2023-01-27T07:07:16;101465.06;;;4.23;77.84
26436;BME280;15351;52.408;16.826;2023-01-27T07:09:42;101465.00;;;4.24;77.67
26436;BME280;15351;52.408;16.826;2023-01-27T07:12:08;101461.79;;;4.21;77.73
26436;BME280;15351;52.408;16.826;2023-01-27T07:14:35;101465.38;;;4.21;77.85
26436;BME280;15351;52.408;16.826;2023-01-27T07:17:04;101463.58;;;4.24;77.88
26436;BME280;15351;52.408;16.826;2023-01-27T07:19:30;101465.16;;;4.26;77.86
26436;BME280;15351;52.408;16.826;2023-01-27T07:21:56;101462.54;;;4.26;77.68
26436;BME280;15351;52.408;16.826;2023-01-27T07:24:23;101462.37;;;4.26;77.70
26436;BME280;15351;52.408;16.826;2023-01-27T07:26:50;101465.62;;;4.28;77.68
26436;BME280;15351;52.408;16.826;2023-01-27T07:29:17;101468.27;;;4.28;77.64
26436;BME280;15351;52.408;16.826;2023-01-27T07:31:45;101471.63;;;4.30;77.74
26436;BME280;15351;52.408;16.826;2023-01-27T07:34:11;101473.87;;;4.31;77.47
26436;BME280;15351;52.408;16.826;2023-01-27T07:36:37;101479.59;;;4.31;77.54
26436;BME280;15351;52.408;16.826;2023-01-27T07:39:04;101478.21;;;4.30;77.63
26436;BME280;15351;52.408;16.826;2023-01-27T07:41:31;101478.54;;;4.28;77.67
26436;BME280;15351;52.408;16.826;2023-01-27T07:43:58;101481.92;;;4.29;77.62
26436;BME280;15351;52.408;16.826;2023-01-27T07:46:26;101493.27;;;4.29;77.52
26436;BME280;15351;52.408;16.826;2023-01-27T07:48:52;101495.59;;;4.24;77.48
26436;BME280;15351;52.408;16.826;2023-01-27T07:51:18;101499.11;;;4.25;77.75
26436;BME280;15351;52.408;16.826;2023-01-27T07:53:44;101501.25;;;4.27;77.97
26436;BME280;15351;52.408;16.826;2023-01-27T07:56:11;101503.29;;;4.31;77.73
26436;BME280;15351;52.408;16.826;2023-01-27T07:58:38;101504.98;;;4.32;77.65
26436;BME280;15351;52.408;16.826;2023-01-27T08:01:07;101508.39;;;4.34;77.60
26436;BME280;15351;52.408;16.826;2023-01-27T08:03:34;101508.27;;;4.33;77.70
26436;BME280;15351;52.408;16.826;2023-01-27T08:06:10;101509.38;;;4.33;77.87
26436;BME280;15351;52.408;16.826;2023-01-27T08:08:37;101515.51;;;4.36;77.91
26436;BME280;15351;52.408;16.826;2023-01-27T08:11:06;101517.39;;;4.37;77.81
26436;BME280;15351;52.408;16.826;2023-01-27T08:13:34;101517.34;;;4.38;77.78
26436;BME280;15351;52.408;16.826;2023-01-27T08:16:05;101523.71;;;4.39;77.82
26436;BME280;15351;52.408;16.826;2023-01-27T08:18:32;101524.05;;;4.39;77.86
26436;BME280;15351;52.408;16.826;2023-01-27T08:20:59;101528.43;;;4.40;78.00
26436;BME280;15351;52.408;16.826;2023-01-27T08:23:27;101532.16;;;4.40;77.88
26436;BME280;15351;52.408;16.826;2023-01-27T08:25:56;101533.89;;;4.41;77.94
26436;BME280;15351;52.408;16.826;2023-01-27T08:28:26;101533.42;;;4.44;77.97
26436;BME280;15351;52.408;16.826;2023-01-27T08:30:53;101534.94;;;4.46;78.04
26436;BME280;15351;52.408;16.826;2023-01-27T08:33:22;101537.89;;;4.49;77.93
26436;BME280;15351;52.408;16.826;2023-01-27T08:35:49;101539.73;;;4.53;78.07
26436;BME280;15351;52.408;16.826;2023-01-27T08:38:17;101540.39;;;4.56;77.82
26436;BME280;15351;52.408;16.826;2023-01-27T08:40:45;101544.60;;;4.55;77.75
26436;BME280;15351;52.408;16.826;2023-01-27T08:43:12;101545.09;;;4.58;77.76
26436;BME280;15351;52.408;16.826;2023-01-27T08:45:42;101544.42;;;4.57;77.68
26436;BME280;15351;52.408;16.826;2023-01-27T08:48:09;101550.83;;;4.59;77.76
26436;BME280;15351;52.408;16.826;2023-01-27T08:50:36;101553.06;;;4.63;77.57
26436;BME280;15351;52.408;16.826;2023-01-27T08:53:05;101552.04;;;4.62;77.57
26436;BME280;15351;52.408;16.826;2023-01-27T08:55:33;101551.23;;;4.61;77.48
26436;BME280;15351;52.408;16.826;2023-01-27T08:58:00;101551.77;;;4.61;77.79
26436;BME280;15351;52.408;16.826;2023-01-27T09:00:27;101548.92;;;4.63;77.75
26436;BME280;15351;52.408;16.826;2023-01-27T09:03:02;101551.29;;;4.60;77.58
26436;BME280;15351;52.408;16.826;2023-01-27T09:05:28;101551.56;;;4.62;77.64
26436;BME280;15351;52.408;16.826;2023-01-27T09:07:54;101553.86;;;4.60;77.52
26436;BME280;15351;52.408;16.826;2023-01-27T09:10:21;101552.39;;;4.58;77.76
26436;BME280;15351;52.408;16.826;2023-01-27T09:12:47;101549.77;;;4.61;77.87
26436;BME280;15351;52.408;16.826;2023-01-27T09:15:14;101551.00;;;4.64;77.79
26436;BME280;15351;52.408;16.826;2023-01-27T09:17:46;101552.09;;;4.65;77.49
26436;BME280;15351;52.408;16.826;2023-01-27T09:20:28;101555.77;;;4.60;77.61
26436;BME280;15351;52.408;16.826;2023-01-27T09:22:54;101559.32;;;4.62;77.87
26436;BME280;15351;52.408;16.826;2023-01-27T09:25:57;101557.35;;;4.67;77.88
26436;BME280;15351;52.408;16.826;2023-01-27T09:28:24;101553.23;;;4.72;77.81
26436;BME280;15351;52.408;16.826;2023-01-27T09:30:56;101557.25;;;4.75;77.62
26436;BME280;15351;52.408;16.826;2023-01-27T09:33:25;101557.32;;;4.75;77.53
26436;BME280;15351;52.408;16.826;2023-01-27T09:36:04;101560.84;;;4.75;77.33
26436;BME280;15351;52.408;16.826;2023-01-27T09:38:35;101559.20;;;4.78;77.43
26436;BME280;15351;52.408;16.826;2023-01-27T09:45:03;101555.34;;;4.82;77.06
26436;BME280;15351;52.408;16.826;2023-01-27T09:47:56;101555.95;;;4.86;76.72
26436;BME280;15351;52.408;16.826;2023-01-27T09:53:55;101563.86;;;4.84;76.50
26436;BME280;15351;52.408;16.826;2023-01-27T09:56:49;101562.14;;;4.81;76.10
26436;BME280;15351;52.408;16.826;2023-01-27T10:07:45;101578.52;;;4.75;75.68
26436;BME280;15351;52.408;16.826;2023-01-27T10:21:36;101583.73;;;4.55;74.56
26436;BME280;15351;52.408;16.826;2023-01-27T10:27:00;101592.58;;;4.61;74.33
26436;BME280;15351;52.408;16.826;2023-01-27T10:30:02;101594.31;;;4.59;74.21
26436;BME280;15351;52.408;16.826;2023-01-27T10:32:44;101592.92;;;4.56;74.22
26436;BME280;15351;52.408;16.826;2023-01-27T10:35:17;101586.29;;;4.57;73.97
26436;BME280;15351;52.408;16.826;2023-01-27T10:40:46;101587.08;;;4.53;73.12
26436;BME280;15351;52.408;16.826;2023-01-27T10:46:11;101588.45;;;4.47;73.49
26436;BME280;15351;52.408;16.826;2023-01-27T10:49:03;101596.83;;;4.49;73.58
26436;BME280;15351;52.408;16.826;2023-01-27T10:51:53;101594.73;;;4.48;73.23
26436;BME280;15351;52.408;16.826;2023-01-27T10:54:25;101596.97;;;4.52;72.92
26436;BME280;15351;52.408;16.826;2023-01-27T11:02:26;101597.63;;;4.55;73.18
26436;BME280;15351;52.408;16.826;2023-01-27T11:04:59;101600.90;;;4.61;73.04
26436;BME280;15351;52.408;16.826;2023-01-27T11:07:26;101599.87;;;4.65;72.87
26436;BME280;15351;52.408;16.826;2023-01-27T11:09:57;101600.38;;;4.70;72.67
26436;BME280;15351;52.408;16.826;2023-01-27T11:12:37;101600.61;;;4.75;72.84
26436;BME280;15351;52.408;16.826;2023-01-27T11:15:28;101595.88;;;4.76;72.80
26436;BME280;15351;52.408;16.826;2023-01-27T11:18:13;101597.48;;;4.76;72.31
26436;BME280;15351;52.408;16.826;2023-01-27T11:20:53;101599.39;;;4.76;72.37
26436;BME280;15351;52.408;16.826;2023-01-27T11:23:46;101601.50;;;4.79;72.28
26436;BME280;15351;52.408;16.826;2023-01-27T11:26:46;101604.12;;;4.77;72.63
26436;BME280;15351;52.408;16.826;2023-01-27T11:29:36;101603.45;;;4.81;72.80
26436;BME280;15351;52.408;16.826;2023-01-27T11:32:32;101613.88;;;4.88;72.67
26436;BME280;15351;52.408;16.826;2023-01-27T11:35:27;101613.13;;;4.93;72.58
26436;BME280;15351;52.408;16.826;2023-01-27T11:38:18;101617.82;;;4.90;72.52
26436;BME280;15351;52.408;16.826;2023-01-27T11:41:24;101619.27;;;4.87;72.49
26436;BME280;15351;52.408;16.826;2023-01-27T11:45:02;101617.02;;;4.86;72.43
26436;BME280;15351;52.408;16.826;2023-01-27T11:47:48;101616.89;;;4.88;72.27
26436;BME280;15351;52.408;16.826;2023-01-27T11:57:54;101615.57;;;4.91;72.48
26436;BME280;15351;52.408;16.826;2023-01-27T12:01:20;101620.35;;;4.94;72.39
26436;BME280;15351;52.408;16.826;2023-01-27T12:07:53;101617.46;;;4.97;72.54
26436;BME280;15351;52.408;16.826;2023-01-27T12:10:48;101613.64;;;4.95;72.32
26436;BME280;15351;52.408;16.826;2023-01-27T12:13:35;101613.15;;;4.92;72.06
26436;BME280;15351;52.408;16.826;2023-01-27T12:16:12;101604.06;;;4.88;71.91
26436;BME280;15351;52.408;16.826;2023-01-27T12:19:43;101610.39;;;4.87;72.08
26436;BME280;15351;52.408;16.826;2023-01-27T12:22:36;101609.44;;;4.85;72.31
26436;BME280;15351;52.408;16.826;2023-01-27T12:26:08;101607.21;;;4.86;72.34
26436;BME280;15351;52.408;16.826;2023-01-27T12:30:19;101606.77;;;4.95;72.09
26436;BME280;15351;52.408;16.826;2023-01-27T12:33:58;101606.77;;;4.92;72.30
26436;BME280;15351;52.408;16.826;2023-01-27T12:36:48;101612.05;;;4.93;72.22
26436;BME280;15351;52.408;16.826;2023-01-27T12:40:06;101609.38;;;4.93;72.31
26436;BME280;15351;52.408;16.826;2023-01-27T12:46:04;101611.77;;;4.94;72.32
26436;BME280;15351;52.408;16.826;2023-01-27T12:49:34;101608.65;;;4.88;72.14
26436;BME280;15351;52.408;16.826;2023-01-27T12:52:51;101610.77;;;4.91;71.94
26436;BME280;15351;52.408;16.826;2023-01-27T12:55:39;101607.86;;;4.92;71.85
26436;BME280;15351;52.408;16.826;2023-01-27T12:59:13;101618.33;;;4.95;71.89
26436;BME280;15351;52.408;16.826;2023-01-27T13:05:59;101616.85;;;5.00;71.97
26436;BME280;15351;52.408;16.826;2023-01-27T13:09:28;101619.06;;;5.04;71.96
26436;BME280;15351;52.408;16.826;2023-01-27T13:12:28;101625.27;;;5.05;72.00
26436;BME280;15351;52.408;16.826;2023-01-27T13:15:19;101622.20;;;5.05;71.96
26436;BME280;15351;52.408;16.826;2023-01-27T13:18:19;101624.77;;;5.02;71.76
26436;BME280;15351;52.408;16.826;2023-01-27T13:21:16;101624.73;;;5.00;71.57
26436;BME280;15351;52.408;16.826;2023-01-27T13:24:09;101629.58;;;4.99;71.69
26436;BME280;15351;52.408;16.826;2023-01-27T13:27:19;101631.52;;;4.97;71.89
26436;BME280;15351;52.408;16.826;2023-01-27T13:30:40;101637.59;;;4.99;71.95
26436;BME280;15351;52.408;16.826;2023-01-27T13:33:57;101637.16;;;5.00;71.84
26436;BME280;15351;52.408;16.826;2023-01-27T13:36:51;101638.42;;;5.03;71.81
26436;BME280;15351;52.408;16.826;2023-01-27T13:49:11;101639.36;;;4.99;71.57
26436;BME280;15351;52.408;16.826;2023-01-27T13:52:28;101647.35;;;5.02;71.64
26436;BME280;15351;52.408;16.826;2023-01-27T14:02:22;101644.63;;;4.93;71.48
26436;BME280;15351;52.408;16.826;2023-01-27T14:12:12;101644.16;;;4.85;71.94
26436;BME280;15351;52.408;16.826;2023-01-27T14:15:23;101647.35;;;4.83;72.08
26436;BME280;15351;52.408;16.826;2023-01-27T14:18:35;101647.45;;;4.84;72.43
26436;BME280;15351;52.408;16.826;2023-01-27T14:21:41;101650.33;;;4.84;72.59
26436;BME280;15351;52.408;16.826;2023-01-27T14:24:32;101648.20;;;4.84;72.88
26436;BME280;15351;52.408;16.826;2023-01-27T14:27:29;101653.21;;;4.91;72.95
26436;BME280;15351;52.408;16.826;2023-01-27T14:41:53;101656.59;;;4.86;73.88
26436;BME280;15351;52.408;16.826;2023-01-27T14:45:01;101662.48;;;4.88;74.00
26436;BME280;15351;52.408;16.826;2023-01-27T14:47:42;101665.31;;;4.86;74.01
26436;BME280;15351;52.408;16.826;2023-01-27T14:50:52;101659.52;;;4.85;74.08
26436;BME280;15351;52.408;16.826;2023-01-27T14:57:14;101667.54;;;4.90;74.15
26436;BME280;15351;52.408;16.826;2023-01-27T15:03:14;101665.41;;;4.87;74.54
26436;BME280;15351;52.408;16.826;2023-01-27T15:08:46;101669.90;;;4.89;74.47
26436;BME280;15351;52.408;16.826;2023-01-27T15:11:50;101671.43;;;4.90;74.55
26436;BME280;15351;52.408;16.826;2023-01-27T15:20:57;101682.73;;;4.96;74.67
26436;BME280;15351;52.408;16.826;2023-01-27T15:24:41;101682.45;;;4.97;74.70
26436;BME280;15351;52.408;16.826;2023-01-27T15:27:00;101681.71;;;4.95;74.67
26436;BME280;15351;52.408;16.826;2023-01-27T15:30:38;101680.80;;;4.93;75.10
26436;BME280;15351;52.408;16.826;2023-01-27T15:33:47;101682.77;;;4.93;75.26
26436;BME280;15351;52.408;16.826;2023-01-27T15:39:13;101688.48;;;4.91;75.25
26436;BME280;15351;52.408;16.826;2023-01-27T15:44:56;101688.69;;;4.91;75.62
26436;BME280;15351;52.408;16.826;2023-01-27T15:47:42;101686.48;;;4.91;75.68
26436;BME280;15351;52.408;16.826;2023-01-27T15:50:31;101682.43;;;4.93;75.80
26436;BME280;15351;52.408;16.826;2023-01-27T15:53:15;101686.48;;;4.96;75.68